Time;durP1;ratioP1;P1;durP2;ratioP2;P2;SDS_P1;SDS_P2;PMS_P1;PMS_P2;Temp;Humidity;BMP_temperature;BMP_pressure;BME280_temperature;BME280_humidity;BME280_pressure;Samples;Min_cycle;Max_cycle;Signal;HPM_P1;HPM_P2
2023/12/30 00:01:47;;;;;;;0.00;0.00;;;;;;;-145.06;100.00;54700.50;10462307;28;20402;-67
2023/12/30 00:06:47;;;;;;;0.10;0.10;;;;;;;-145.06;100.00;54694.44;10456044;28;20025;-67
2023/12/30 00:11:48;;;;;;;0.10;0.10;;;;;;;-145.06;100.00;54714.69;10469111;28;20063;-67
2023/12/30 00:16:48;;;;;;;0.00;0.00;;;;;;;-145.06;100.00;54708.59;10454035;28;20044;-67
2023/12/30 00:21:48;;;;;;;0.00;0.00;;;;;;;-145.06;100.00;54702.53;10454115;28;20028;-67
2023/12/30 00:26:50;;;;;;;0.10;0.10;;;;;;;-145.06;100.00;54706.59;10459008;28;20265;-67
2023/12/30 00:31:50;;;;;;;0.00;0.00;;;;;;;-145.06;100.00;54678.22;10435211;28;20021;-67
2023/12/30 00:36:50;;;;;;;0.10;0.10;;;;;;;-145.06;100.00;54680.25;10454998;28;20016;-66
2023/12/30 00:41:50;;;;;;;0.08;0.08;;;;;;;-145.06;100.00;54716.72;10453649;28;20363;-67
2023/12/30 00:46:51;;;;;;;0.00;0.00;;;;;;;-145.06;100.00;54678.22;10463756;28;20021;-66
2023/12/30 00:51:51;;;;;;;0.00;0.00;;;;;;;-145.06;100.00;54674.19;10461434;28;20320;-67
2023/12/30 00:56:51;;;;;;;0.00;0.00;;;;;;;-145.06;100.00;54670.13;10456758;28;20394;-67
2023/12/30 01:01:52;;;;;;;0.10;0.10;;;;;;;-145.06;100.00;54682.28;10463610;28;20022;-67
2023/12/30 01:06:52;;;;;;;0.00;0.00;;;;;;;-145.06;100.00;54706.59;10456474;28;20174;-68
2023/12/30 01:11:52;;;;;;;0.00;0.00;;;;;;;-145.06;100.00;54718.72;10461260;28;20025;-67
2023/12/30 01:16:52;;;;;;;0.00;0.00;;;;;;;-145.06;100.00;54678.22;10444576;28;20086;-67
2023/12/30 01:21:53;;;;;;;0.10;0.10;;;;;;;-145.06;100.00;54720.75;10461196;28;20775;-68
2023/12/30 01:26:53;;;;;;;0.10;0.10;;;;;;;-145.06;100.00;54741.03;10466684;28;20728;-67
2023/12/30 01:31:53;;;;;;;0.10;0.10;;;;;;;-145.06;100.00;54714.69;10463261;28;20553;-67
2023/12/30 01:36:54;;;;;;;0.10;0.10;;;;;;;-145.06;100.00;54728.88;10452737;28;20021;-67
2023/12/30 01:41:54;;;;;;;0.10;0.10;;;;;;;-145.06;100.00;54722.78;10466502;28;20107;-67
2023/12/30 01:46:55;;;;;;;0.00;0.00;;;;;;;-145.06;100.00;54730.88;10457267;28;20059;-67
2023/12/30 01:51:56;;;;;;;0.00;0.00;;;;;;;-145.06;100.00;54743.03;10431083;28;20540;-66
2023/12/30 01:56:59;;;;;;;0.00;0.00;;;;;;;-145.06;100.00;54694.44;10452505;28;20857;-66
2023/12/30 02:01:59;;;;;;;0.00;0.00;;;;;;;-145.06;100.00;54726.84;10436528;28;20032;-67
2023/12/30 02:06:59;;;;;;;0.00;0.00;;;;;;;-145.06;100.00;54714.69;10464522;28;20389;-67
2023/12/30 02:12:00;;;;;;;0.00;0.00;;;;;;;-145.06;100.00;54706.59;10458199;28;20747;-65
2023/12/30 02:17:00;;;;;;;0.10;0.10;;;;;;;-145.06;100.00;54712.66;10456371;28;20112;-66
2023/12/30 02:22:00;;;;;;;0.00;0.00;;;;;;;-145.06;100.00;54730.88;10462286;28;20063;-67
2023/12/30 02:27:01;;;;;;;0.00;0.00;;;;;;;-145.06;100.00;54714.69;10461912;28;20036;-65
2023/12/30 02:32:02;;;;;;;0.00;0.00;;;;;;;-145.06;100.00;54708.59;10456139;28;20025;-67
2023/12/30 02:37:02;;;;;;;0.00;0.00;;;;;;;-145.06;100.00;54741.03;10455659;28;20454;-66
2023/12/30 02:42:02;;;;;;;0.00;0.00;;;;;;;-145.06;100.00;54716.72;10459578;28;20430;-67
2023/12/30 02:47:03;;;;;;;0.00;0.00;;;;;;;-145.06;100.00;54747.09;10460520;28;20181;-67
2023/12/30 02:52:03;;;;;;;0.00;0.00;;;;;;;-145.06;100.00;54728.88;10463497;28;20013;-66
2023/12/30 02:57:04;;;;;;;0.00;0.00;;;;;;;-145.06;100.00;54739.00;10461812;28;20028;-67
2023/12/30 03:02:04;;;;;;;0.00;0.00;;;;;;;-145.06;100.00;54757.22;10461514;28;20063;-67
2023/12/30 03:07:05;;;;;;;0.10;0.10;;;;;;;-145.06;100.00;54743.03;10457198;28;20024;-67
2023/12/30 03:12:05;;;;;;;0.10;0.10;;;;;;;-145.06;100.00;54734.94;10466056;28;20462;-66
2023/12/30 03:17:06;;;;;;;0.00;0.00;;;;;;;-145.06;100.00;54751.16;10443334;28;20366;-66
2023/12/30 03:22:06;;;;;;;0.00;0.00;;;;;;;-145.06;100.00;54734.94;10463136;28;20029;-66
2023/12/30 03:27:07;;;;;;;0.10;0.10;;;;;;;-145.06;100.00;54728.88;10468780;28;20024;-67
2023/12/30 03:32:07;;;;;;;0.00;0.00;;;;;;;-145.06;100.00;54714.69;10460555;28;20389;-67
2023/12/30 03:37:07;;;;;;;0.00;0.00;;;;;;;-145.06;100.00;54741.03;10434467;28;20256;-67
2023/12/30 03:42:07;;;;;;;0.00;0.00;;;;;;;-145.06;100.00;54743.03;10457578;28;20017;-66
2023/12/30 03:47:08;;;;;;;0.00;0.00;;;;;;;-145.06;100.00;54724.81;10457484;28;20082;-66
2023/12/30 03:52:08;;;;;;;0.00;0.00;;;;;;;-145.06;100.00;54741.03;10470608;28;20028;-67
2023/12/30 03:57:08;;;;;;;0.00;0.00;;;;;;;-145.06;100.00;54702.53;10445165;28;20024;-68
2023/12/30 04:02:08;;;;;;;0.00;0.00;;;;;;;-145.06;100.00;54710.63;10466879;28;20415;-68
2023/12/30 04:07:09;;;;;;;0.00;0.00;;;;;;;-145.06;100.00;54680.25;10441282;28;20020;-67
2023/12/30 04:12:09;;;;;;;0.00;0.00;;;;;;;-145.06;100.00;54682.28;10466805;28;20449;-67
2023/12/30 04:17:10;;;;;;;0.00;0.00;;;;;;;-145.06;100.00;54722.78;10462979;28;20059;-67
2023/12/30 04:22:10;;;;;;;0.10;0.10;;;;;;;-145.06;100.00;54684.31;10455894;28;20025;-67
2023/12/30 04:27:10;;;;;;;0.00;0.00;;;;;;;-145.06;100.00;54690.38;10442771;28;20027;-66
2023/12/30 04:32:11;;;;;;;0.00;0.00;;;;;;;-145.06;100.00;54716.72;10468755;28;20032;-68
2023/12/30 04:37:11;;;;;;;0.10;0.10;;;;;;;-145.06;100.00;54666.06;10462178;28;20025;-68
2023/12/30 04:42:12;;;;;;;0.00;0.00;;;;;;;-145.06;100.00;54710.63;10471199;28;20024;-69
2023/12/30 04:47:12;;;;;;;0.00;0.00;;;;;;;-145.06;100.00;54720.75;10467727;28;20405;-68
2023/12/30 04:52:12;;;;;;;0.00;0.00;;;;;;;-145.06;100.00;54702.53;10458497;28;20489;-68
2023/12/30 04:57:13;;;;;;;0.00;0.00;;;;;;;-145.06;100.00;54704.56;10456124;28;20019;-68
2023/12/30 05:02:13;;;;;;;0.00;0.00;;;;;;;-145.06;100.00;54698.47;10460007;28;20267;-68
2023/12/30 05:07:13;;;;;;;0.00;0.00;;;;;;;-145.06;100.00;54696.44;10463210;28;20029;-67
2023/12/30 05:12:14;;;;;;;0.10;0.10;;;;;;;-145.06;100.00;54700.50;10455081;28;20017;-68
2023/12/30 05:17:14;;;;;;;0.00;0.00;;;;;;;-145.06;100.00;54706.59;10467837;28;20021;-67
2023/12/30 05:22:14;;;;;;;0.00;0.00;;;;;;;-145.06;100.00;54702.53;10475482;28;20016;-68
2023/12/30 05:27:14;;;;;;;0.00;0.00;;;;;;;-145.06;100.00;54686.31;10452984;28;20028;-68
2023/12/30 05:32:15;;;;;;;0.00;0.00;;;;;;;-145.06;100.00;54662.03;10455586;28;20021;-68
2023/12/30 05:37:15;;;;;;;0.00;0.00;;;;;;;-145.06;100.00;54706.59;10445821;28;20089;-67
2023/12/30 05:42:15;;;;;;;0.00;0.00;;;;;;;-145.06;100.00;54720.75;10466973;28;20263;-67
2023/12/30 05:47:16;;;;;;;0.00;0.00;;;;;;;-145.06;100.00;54732.91;10468251;28;20029;-68
2023/12/30 05:52:16;;;;;;;0.10;0.10;;;;;;;-145.06;100.00;54700.50;10460279;28;20078;-67
2023/12/30 05:57:17;;;;;;;0.10;0.10;;;;;;;-145.06;100.00;54704.56;10478456;28;20025;-68
2023/12/30 06:02:18;;;;;;;0.00;0.00;;;;;;;-145.06;100.00;54700.50;10469431;28;20393;-67
2023/12/30 06:07:18;;;;;;;0.00;0.00;;;;;;;-145.06;100.00;54686.31;10466690;28;20024;-66
2023/12/30 06:12:18;;;;;;;0.00;0.00;;;;;;;-145.06;100.00;54657.97;10447120;28;20032;-66
2023/12/30 06:17:18;;;;;;;0.00;0.00;;;;;;;-145.06;100.00;54702.53;10472101;28;20020;-66
2023/12/30 06:22:19;;;;;;;0.00;0.00;;;;;;;-145.06;100.00;54682.28;10468317;28;20025;-66
2023/12/30 06:27:20;;;;;;;0.00;0.00;;;;;;;-145.06;100.00;54680.25;10467186;28;20025;-66
2023/12/30 06:32:20;;;;;;;0.10;0.10;;;;;;;-145.06;100.00;54718.72;10467095;28;20179;-67
2023/12/30 06:37:20;;;;;;;0.00;0.00;;;;;;;-145.06;100.00;54674.19;10466647;28;20382;-66
2023/12/30 06:42:21;;;;;;;0.00;0.00;;;;;;;-145.06;100.00;54670.13;10467608;28;20084;-67
2023/12/30 06:47:21;;;;;;;0.00;0.00;;;;;;;-145.06;100.00;54657.97;10470038;28;20077;-67
2023/12/30 06:52:23;;;;;;;0.00;0.00;;;;;;;-145.06;100.00;54651.88;10476601;28;20259;-67
2023/12/30 06:57:25;;;;;;;0.00;0.00;;;;;;;-145.06;100.00;54698.47;10468331;28;20082;-68
2023/12/30 07:02:26;;;;;;;0.00;0.00;;;;;;;-145.06;100.00;54698.47;10461314;28;20138;-67
2023/12/30 07:07:26;;;;;;;0.00;0.00;;;;;;;-145.06;100.00;54674.19;10467442;28;20385;-69
2023/12/30 07:12:26;;;;;;;0.00;0.00;;;;;;;-145.06;100.00;54664.03;10469855;28;20028;-67
2023/12/30 07:17:27;;;;;;;0.00;0.00;;;;;;;-145.06;100.00;54680.25;10465661;28;20093;-67
2023/12/30 07:22:27;;;;;;;0.00;0.00;;;;;;;-145.06;100.00;54706.59;10452736;28;20107;-67
2023/12/30 07:27:27;;;;;;;0.00;0.00;;;;;;;-145.06;100.00;54696.44;10463295;28;20012;-68
2023/12/30 07:32:28;;;;;;;0.00;0.00;;;;;;;-145.06;100.00;54680.25;10456228;28;20025;-67
2023/12/30 07:37:29;;;;;;;0.00;0.00;;;;;;;-145.06;100.00;54678.22;10466252;28;20024;-67
2023/12/30 07:42:29;;;;;;;0.00;0.00;;;;;;;-145.06;100.00;54694.44;10467728;28;20025;-66
2023/12/30 07:47:30;;;;;;;0.00;0.00;;;;;;;-145.06;100.00;54692.41;10459536;28;20042;-67
2023/12/30 07:52:30;;;;;;;0.00;0.00;;;;;;;-145.06;100.00;54664.03;10467960;28;20027;-68
2023/12/30 07:57:30;;;;;;;0.10;0.10;;;;;;;-145.06;100.00;54684.31;10465438;28;20028;-67
2023/12/30 08:02:30;;;;;;;0.00;0.00;;;;;;;-145.06;100.00;54698.47;10469544;28;20035;-67
2023/12/30 08:07:31;;;;;;;0.10;0.10;;;;;;;-145.06;100.00;54710.63;10456439;28;20032;-68
2023/12/30 08:12:31;;;;;;;0.00;0.00;;;;;;;-145.06;100.00;54700.50;10449188;28;20052;-69
2023/12/30 08:17:31;;;;;;;0.00;0.00;;;;;;;-145.06;100.00;54718.72;10461835;28;20028;-68
2023/12/30 08:22:32;;;;;;;0.00;0.00;;;;;;;-145.06;100.00;54720.75;10474916;28;20258;-68
2023/12/30 08:27:32;;;;;;;0.00;0.00;;;;;;;-145.06;100.00;54726.84;10465981;28;20013;-67
2023/12/30 08:32:32;;;;;;;0.00;0.00;;;;;;;-145.06;100.00;54734.94;10463492;28;20052;-67
2023/12/30 08:37:34;;;;;;;0.00;0.00;;;;;;;-145.06;100.00;54743.03;10466554;28;20389;-68
2023/12/30 08:42:34;;;;;;;0.00;0.00;;;;;;;-145.06;100.00;54700.50;10466481;28;20013;-67
2023/12/30 08:47:35;;;;;;;0.00;0.00;;;;;;;-145.06;100.00;54710.63;10471785;28;20024;-67
2023/12/30 08:52:35;;;;;;;0.00;0.00;;;;;;;-145.06;100.00;54698.47;10474802;28;20027;-68
2023/12/30 08:57:39;;;;;;;0.10;0.10;;;;;;;-145.06;100.00;54743.03;10471697;28;20027;-68
2023/12/30 09:02:46;;;;;;;0.00;0.00;;;;;;;-145.06;100.00;54728.88;10469093;28;20021;-67
2023/12/30 09:07:48;;;;;;;0.00;0.00;;;;;;;-145.06;100.00;54722.78;10441257;28;20104;-68
2023/12/30 09:12:49;;;;;;;0.00;0.00;;;;;;;-145.06;100.00;54720.75;10461708;28;20522;-68
2023/12/30 09:17:49;;;;;;;0.00;0.00;;;;;;;-145.06;100.00;54678.22;10472785;28;20032;-68
2023/12/30 09:22:49;;;;;;;0.05;0.05;;;;;;;-145.06;100.00;54751.16;10473254;28;20032;-69
2023/12/30 09:27:50;;;;;;;0.00;0.00;;;;;;;-145.06;100.00;54722.78;10477483;28;20044;-68
2023/12/30 09:32:50;;;;;;;0.10;0.10;;;;;;;-145.06;100.00;54726.84;10476798;28;20032;-68
2023/12/30 09:37:50;;;;;;;0.00;0.00;;;;;;;-145.06;100.00;54712.66;10452589;28;20293;-68
2023/12/30 09:42:51;;;;;;;0.00;0.00;;;;;;;-145.06;100.00;54743.03;10473935;28;20029;-68
2023/12/30 09:47:53;;;;;;;0.10;0.10;;;;;;;-145.06;100.00;54728.88;10475906;28;20470;-68
2023/12/30 09:52:53;;;;;;;0.10;0.10;;;;;;;-145.06;100.00;54751.16;10473336;28;20056;-68
2023/12/30 09:57:53;;;;;;;0.00;0.00;;;;;;;-145.06;100.00;54726.84;10469674;28;20465;-68
2023/12/30 10:02:54;;;;;;;0.00;0.00;;;;;;;-145.06;100.00;54688.34;10467748;28;20767;-67
2023/12/30 10:07:54;;;;;;;0.10;0.10;;;;;;;-145.06;100.00;54702.53;10464538;28;20017;-67
2023/12/30 10:12:55;;;;;;;0.00;0.00;;;;;;;-145.06;100.00;54734.94;10467568;28;20086;-67
2023/12/30 10:17:55;;;;;;;0.05;0.05;;;;;;;-145.06;100.00;54726.84;10458073;28;20028;-67
2023/12/30 10:22:56;;;;;;;0.10;0.10;;;;;;;-145.06;100.00;54708.59;10465525;28;20103;-68
2023/12/30 10:27:56;;;;;;;0.00;0.00;;;;;;;-145.06;100.00;54726.84;10459380;28;20025;-67
2023/12/30 10:33:23;;;;;;;0.00;0.00;;;;;;;-145.06;100.00;54706.59;10460889;28;20025;-67
2023/12/30 10:38:24;;;;;;;0.00;0.00;;;;;;;-145.06;100.00;54672.16;10453148;28;20033;-68
2023/12/30 10:43:24;;;;;;;0.10;0.10;;;;;;;-145.06;100.00;54698.47;10467888;28;20037;-67
2023/12/30 10:48:34;;;;;;;0.10;0.10;;;;;;;-145.06;100.00;54706.59;10465845;28;20016;-69
2023/12/30 10:53:44;;;;;;;0.00;0.00;;;;;;;-145.06;100.00;54710.63;10457469;28;20116;-68
2023/12/30 10:58:45;;;;;;;0.00;0.00;;;;;;;-145.06;100.00;54728.88;10469560;28;20049;-68
2023/12/30 11:03:45;;;;;;;0.00;0.00;;;;;;;-145.06;100.00;54706.59;10465684;28;20115;-68
2023/12/30 11:08:46;;;;;;;0.08;0.08;;;;;;;-145.06;100.00;54702.53;10460209;28;20020;-68
2023/12/30 11:13:46;;;;;;;0.00;0.00;;;;;;;-145.06;100.00;54682.28;10451698;28;20029;-68
2023/12/30 11:18:53;;;;;;;0.00;0.00;;;;;;;-145.06;100.00;54678.22;10473363;28;20024;-68
2023/12/30 11:24:01;;;;;;;0.00;0.00;;;;;;;-145.06;100.00;54678.22;10467446;28;20029;-67
2023/12/30 11:29:03;;;;;;;0.10;0.10;;;;;;;-145.06;100.00;54655.94;10462446;28;20104;-68
2023/12/30 11:34:06;;;;;;;0.00;0.00;;;;;;;-145.06;100.00;54688.34;10465917;28;20083;-69
2023/12/30 11:39:07;;;;;;;0.00;0.00;;;;;;;-145.06;100.00;54666.06;10469045;28;20021;-67
2023/12/30 11:44:07;;;;;;;0.00;0.00;;;;;;;-145.06;100.00;54662.03;10476500;28;20020;-68
2023/12/30 11:49:08;;;;;;;0.00;0.00;;;;;;;-145.06;100.00;54625.56;10466610;28;20462;-68
2023/12/30 11:54:08;;;;;;;0.00;0.00;;;;;;;-145.06;100.00;54629.63;10456747;28;20549;-68
2023/12/30 11:59:09;;;;;;;0.00;0.00;;;;;;;-145.06;100.00;54639.75;10472643;28;20081;-68
2023/12/30 12:04:09;;;;;;;0.00;0.00;;;;;;;-145.06;100.00;54670.13;10466120;28;20037;-69
2023/12/30 12:09:10;;;;;;;0.00;0.00;;;;;;;-145.06;100.00;54653.91;10449882;28;20024;-69
2023/12/30 12:14:10;;;;;;;0.00;0.00;;;;;;;-145.06;100.00;54651.88;10478756;28;20046;-68
2023/12/30 12:19:10;;;;;;;0.00;0.00;;;;;;;-145.06;100.00;54645.81;10487472;28;20023;-68
2023/12/30 12:24:11;;;;;;;0.00;0.00;;;;;;;-145.06;100.00;54613.41;10467120;28;20036;-68
2023/12/30 12:29:12;;;;;;;0.00;0.00;;;;;;;-145.06;100.00;54609.34;10467679;28;20027;-68
2023/12/30 12:34:20;;;;;;;0.00;0.00;;;;;;;-145.06;100.00;54589.09;10453874;28;20420;-68
2023/12/30 12:39:20;;;;;;;0.00;0.00;;;;;;;-145.06;100.00;54591.13;10467922;28;20027;-68
2023/12/30 12:44:21;;;;;;;0.00;0.00;;;;;;;-145.06;100.00;54591.13;10467629;28;20039;-68
2023/12/30 12:49:22;;;;;;;0.10;0.10;;;;;;;-145.06;100.00;54607.34;10464052;28;20032;-68
2023/12/30 12:54:23;;;;;;;0.00;0.00;;;;;;;-145.06;100.00;54607.34;10455780;28;20020;-68
2023/12/30 12:59:23;;;;;;;0.00;0.00;;;;;;;-145.06;100.00;54621.50;10455917;28;20025;-67
2023/12/30 13:04:24;;;;;;;0.00;0.00;;;;;;;-145.06;100.00;54603.28;10458534;28;20020;-67
2023/12/30 13:09:34;;;;;;;0.00;0.00;;;;;;;-145.06;100.00;54629.63;10463109;28;20112;-67
2023/12/30 13:14:35;;;;;;;0.00;0.00;;;;;;;-145.06;100.00;54585.06;10455320;28;20043;-67
2023/12/30 13:19:36;;;;;;;0.00;0.00;;;;;;;-145.06;100.00;54619.47;10457068;28;20086;-67
2023/12/30 13:24:39;;;;;;;0.00;0.00;;;;;;;-145.06;100.00;54609.34;10462633;28;20406;-67
2023/12/30 13:29:41;;;;;;;0.00;0.00;;;;;;;-145.06;100.00;54603.28;10455867;28;20013;-66
2023/12/30 13:34:43;;;;;;;0.00;0.00;;;;;;;-145.06;100.00;54585.06;10460720;28;20021;-67
2023/12/30 13:39:44;;;;;;;0.00;0.00;;;;;;;-145.06;100.00;54597.19;10459290;28;20042;-66
2023/12/30 13:44:45;;;;;;;0.10;0.10;;;;;;;-145.06;100.00;54621.50;10438100;28;20029;-67
2023/12/30 13:50:10;;;;;;;0.08;0.08;;;;;;;-145.06;100.00;54595.19;10458790;28;20382;-66
2023/12/30 13:55:14;;;;;;;;;;;;;;;-145.06;100.00;54619.47;10458116;28;20106;-66
2023/12/30 14:00:18;;;;;;;0.08;0.08;;;;;;;-145.06;100.00;54603.28;10468300;28;19920;-69
2023/12/30 14:05:23;;;;;;;0.05;0.05;;;;;;;-145.06;100.00;54617.47;10460644;28;20040;-69
2023/12/30 14:10:26;;;;;;;0.00;0.00;;;;;;;-145.06;100.00;54613.41;10464694;28;20025;-67
2023/12/30 14:15:26;;;;;;;0.03;0.03;;;;;;;-145.06;100.00;54605.31;10467723;28;20438;-67
2023/12/30 14:20:27;;;;;;;0.00;0.00;;;;;;;-145.06;100.00;54591.13;10462097;28;20020;-68
2023/12/30 14:25:29;;;;;;;0.10;0.10;;;;;;;-145.06;100.00;54601.25;10469088;28;20066;-67
2023/12/30 14:30:30;;;;;;;0.00;0.00;;;;;;;-145.06;100.00;54613.41;10467762;28;20020;-68
2023/12/30 14:35:31;;;;;;;0.00;0.00;;;;;;;-145.06;100.00;54627.59;10442558;28;20406;-68
2023/12/30 14:40:31;;;;;;;0.00;0.00;;;;;;;-145.06;100.00;54631.63;10465946;28;20023;-68
2023/12/30 14:45:31;;;;;;;0.00;0.00;;;;;;;-145.06;100.00;54633.66;10464918;28;20470;-69
2023/12/30 14:50:31;;;;;;;0.00;0.00;;;;;;;-145.06;100.00;54627.59;10456235;28;20009;-68
2023/12/30 14:55:32;;;;;;;0.00;0.00;;;;;;;-145.06;100.00;54670.13;10465885;28;20271;-68
2023/12/30 15:00:32;;;;;;;0.00;0.00;;;;;;;-145.06;100.00;54647.84;10464770;28;20371;-68
2023/12/30 15:05:32;;;;;;;0.00;0.00;;;;;;;-145.06;100.00;54643.78;10464078;28;20028;-68
2023/12/30 15:10:33;;;;;;;0.00;0.00;;;;;;;-145.06;100.00;54651.88;10461213;28;20017;-68
2023/12/30 15:15:33;;;;;;;0.00;0.00;;;;;;;-145.06;100.00;54696.44;10464350;28;20017;-68
2023/12/30 15:20:34;;;;;;;0.10;0.10;;;;;;;-145.06;100.00;54678.22;10462699;28;20024;-68
2023/12/30 15:25:35;;;;;;;0.00;0.00;;;;;;;-145.06;100.00;54657.97;10467989;28;20103;-67
2023/12/30 15:30:35;;;;;;;0.00;0.00;;;;;;;-145.06;100.00;54686.31;10467911;28;20017;-68
2023/12/30 15:35:37;;;;;;;0.00;0.00;;;;;;;-145.06;100.00;54674.19;10468264;28;20021;-68
2023/12/30 15:40:40;;;;;;;0.00;0.00;;;;;;;-145.06;100.00;54688.34;10456426;28;20017;-67
2023/12/30 15:45:41;;;;;;;0.00;0.00;;;;;;;-145.06;100.00;54696.44;10457167;28;20028;-67
2023/12/30 15:50:41;;;;;;;0.00;0.00;;;;;;;-145.06;100.00;54698.47;10465357;28;20021;-67
2023/12/30 15:55:41;;;;;;;0.00;0.00;;;;;;;-145.06;100.00;54686.31;10473737;28;20020;-68
2023/12/30 16:00:42;;;;;;;0.00;0.00;;;;;;;-145.06;100.00;54684.31;10459245;28;20280;-68
2023/12/30 16:05:42;;;;;;;0.00;0.00;;;;;;;-145.06;100.00;54702.53;10464739;28;20321;-67
2023/12/30 16:10:42;;;;;;;0.00;0.00;;;;;;;-145.06;100.00;54672.16;10462059;28;20037;-68
2023/12/30 16:15:43;;;;;;;0.00;0.00;;;;;;;-145.06;100.00;54690.38;10459700;28;20025;-67
2023/12/30 16:20:44;;;;;;;0.00;0.00;;;;;;;-145.06;100.00;54710.63;10462335;28;21011;-67
2023/12/30 16:25:45;;;;;;;0.00;0.00;;;;;;;-145.06;100.00;54692.41;10462081;28;20013;-67
2023/12/30 16:30:45;;;;;;;0.00;0.00;;;;;;;-145.06;100.00;54680.25;10469501;28;20047;-67
2023/12/30 16:35:46;;;;;;;0.00;0.00;;;;;;;-145.06;100.00;54714.69;10471420;28;20389;-67
2023/12/30 16:40:46;;;;;;;0.10;0.10;;;;;;;-145.06;100.00;54710.63;10462029;28;20035;-67
2023/12/30 16:45:46;;;;;;;0.00;0.00;;;;;;;-145.06;100.00;54696.44;10464165;28;20033;-67
2023/12/30 16:50:47;;;;;;;0.00;0.00;;;;;;;-145.06;100.00;54694.44;10458947;28;20656;-68
2023/12/30 16:55:48;;;;;;;0.00;0.00;;;;;;;-145.06;100.00;54739.00;10464112;28;20379;-68
2023/12/30 17:00:50;;;;;;;0.00;0.00;;;;;;;-145.06;100.00;54714.69;10466764;28;20037;-68
2023/12/30 17:05:51;;;;;;;0.00;0.00;;;;;;;-145.06;100.00;54702.53;10464388;28;20021;-68
2023/12/30 17:10:51;;;;;;;0.00;0.00;;;;;;;-145.06;100.00;54710.63;10458127;28;20021;-67
2023/12/30 17:15:51;;;;;;;0.00;0.00;;;;;;;-145.06;100.00;54714.69;10455157;28;20028;-67
2023/12/30 17:20:52;;;;;;;0.00;0.00;;;;;;;-145.06;100.00;54684.31;10448957;28;20071;-67
2023/12/30 17:25:52;;;;;;;0.00;0.00;;;;;;;-145.06;100.00;54726.84;10460972;28;20067;-68
2023/12/30 17:30:52;;;;;;;0.00;0.00;;;;;;;-145.06;100.00;54680.25;10455728;28;20067;-68
2023/12/30 17:35:53;;;;;;;0.00;0.00;;;;;;;-145.06;100.00;54694.44;10473036;28;20385;-67
2023/12/30 17:40:53;;;;;;;0.00;0.00;;;;;;;-145.06;100.00;54690.38;10471345;28;20478;-68
2023/12/30 17:45:54;;;;;;;0.00;0.00;;;;;;;-145.06;100.00;54668.09;10478203;28;20027;-68
2023/12/30 17:50:54;;;;;;;0.00;0.00;;;;;;;-145.06;100.00;54684.31;10468699;28;20020;-67
2023/12/30 17:55:54;;;;;;;0.00;0.00;;;;;;;-145.06;100.00;54686.31;10472547;28;20020;-68
2023/12/30 18:00:55;;;;;;;0.00;0.00;;;;;;;-145.06;100.00;54682.28;10474666;28;20371;-69
2023/12/30 18:05:55;;;;;;;0.00;0.00;;;;;;;-145.06;100.00;54655.94;10477918;28;20024;-68
2023/12/30 18:10:55;;;;;;;0.00;0.00;;;;;;;-145.06;100.00;54684.31;10445782;28;20259;-68
2023/12/30 18:15:58;;;;;;;0.00;0.00;;;;;;;-145.06;100.00;54690.38;10463625;28;20096;-68
2023/12/30 18:20:58;;;;;;;0.00;0.00;;;;;;;-145.06;100.00;54678.22;10453901;28;20029;-68
2023/12/30 18:25:59;;;;;;;0.00;0.00;;;;;;;-145.06;100.00;54629.63;10456194;28;20075;-68
2023/12/30 18:30:59;;;;;;;0.00;0.00;;;;;;;-145.06;100.00;54662.03;10462717;28;20033;-67
2023/12/30 18:35:59;;;;;;;0.00;0.00;;;;;;;-145.06;100.00;54635.69;10480273;28;20031;-68
2023/12/30 18:41:00;;;;;;;0.00;0.00;;;;;;;-145.06;100.00;54643.78;10466814;28;20021;-67
2023/12/30 18:46:01;;;;;;;0.00;0.00;;;;;;;-145.06;100.00;54631.63;10466034;28;20040;-67
2023/12/30 18:51:01;;;;;;;0.00;0.00;;;;;;;-145.06;100.00;54625.56;10466979;28;20032;-68
2023/12/30 18:56:03;;;;;;;0.00;0.00;;;;;;;-145.06;100.00;54617.47;10468852;28;20029;-68
2023/12/30 19:01:03;;;;;;;0.00;0.00;;;;;;;-145.06;100.00;54601.25;10465704;28;20376;-68
2023/12/30 19:06:03;;;;;;;0.00;0.00;;;;;;;-145.06;100.00;54645.81;10464774;28;20095;-68
2023/12/30 19:11:04;;;;;;;0.00;0.00;;;;;;;-145.06;100.00;54641.75;10468377;28;20023;-68
2023/12/30 19:16:04;;;;;;;0.00;0.00;;;;;;;-145.06;100.00;54633.66;10468701;28;20277;-68
2023/12/30 19:21:04;;;;;;;0.00;0.00;;;;;;;-145.06;100.00;54637.72;10460600;28;20314;-68
2023/12/30 19:26:05;;;;;;;0.00;0.00;;;;;;;-145.06;100.00;54609.34;10456632;28;20029;-67
2023/12/30 19:31:05;;;;;;;0.00;0.00;;;;;;;-145.06;100.00;54623.53;10465329;28;20478;-67
2023/12/30 19:36:06;;;;;;;0.00;0.00;;;;;;;-145.06;100.00;54653.91;10466844;28;20529;-68
2023/12/30 19:41:06;;;;;;;0.00;0.00;;;;;;;-145.06;100.00;54641.75;10466248;28;20028;-68
2023/12/30 19:46:07;;;;;;;0.00;0.00;;;;;;;-145.06;100.00;54611.38;10459300;28;20044;-68
2023/12/30 19:51:07;;;;;;;0.00;0.00;;;;;;;-145.06;100.00;54609.34;10464029;28;20028;-69
2023/12/30 19:56:08;;;;;;;0.00;0.00;;;;;;;-145.06;100.00;54591.13;10478073;28;20381;-68
2023/12/30 20:01:14;;;;;;;0.00;0.00;;;;;;;-145.06;100.00;54621.50;10449748;28;20021;-67
2023/12/30 20:06:15;;;;;;;0.00;0.00;;;;;;;-145.06;100.00;54631.63;10464788;28;20024;-67
2023/12/30 20:11:16;;;;;;;0.00;0.00;;;;;;;-145.06;100.00;54625.56;10470852;28;20021;-67
2023/12/30 20:16:16;;;;;;;0.00;0.00;;;;;;;-145.06;100.00;54649.88;10468432;28;20489;-68
2023/12/30 20:21:17;;;;;;;0.00;0.00;;;;;;;-145.06;100.00;54633.66;10476969;28;20402;-68
2023/12/30 20:26:17;;;;;;;0.10;0.10;;;;;;;-145.06;100.00;54637.72;10458061;28;20550;-67
2023/12/30 20:31:18;;;;;;;0.00;0.00;;;;;;;-145.06;100.00;54680.25;10437505;28;20017;-68
2023/12/30 20:36:20;;;;;;;0.00;0.00;;;;;;;-145.06;100.00;54641.75;10455430;28;20512;-68
2023/12/30 20:41:20;;;;;;;0.00;0.00;;;;;;;-145.06;100.00;54647.84;10456493;28;20103;-67
2023/12/30 20:46:20;;;;;;;0.10;0.10;;;;;;;-145.06;100.00;54674.19;10458558;28;20396;-68
2023/12/30 20:51:20;;;;;;;0.03;0.03;;;;;;;-145.06;100.00;54627.59;10454636;28;20017;-67
2023/12/30 20:56:21;;;;;;;0.00;0.00;;;;;;;-145.06;100.00;54649.88;10460002;28;20074;-68
2023/12/30 21:01:21;;;;;;;0.03;0.03;;;;;;;-145.06;100.00;54633.66;10459366;28;20029;-67
2023/12/30 21:06:21;;;;;;;0.10;0.10;;;;;;;-145.06;100.00;54625.56;10438708;28;20043;-68
2023/12/30 21:11:22;;;;;;;0.00;0.00;;;;;;;-145.06;100.00;54633.66;10460458;28;20024;-67
2023/12/30 21:16:23;;;;;;;0.00;0.00;;;;;;;-145.06;100.00;54641.75;10460377;28;20024;-68
2023/12/30 21:21:23;;;;;;;0.10;0.10;;;;;;;-145.06;100.00;54637.72;10461614;28;20021;-67
2023/12/30 21:26:25;;;;;;;0.10;0.10;;;;;;;-145.06;100.00;54643.78;10457896;28;20017;-67
2023/12/30 21:31:25;;;;;;;0.00;0.00;;;;;;;-145.06;100.00;54601.25;10453715;28;20083;-68
2023/12/30 21:36:27;;;;;;;0.10;0.10;;;;;;;-145.06;100.00;54653.91;10456113;28;20367;-68
2023/12/30 21:41:27;;;;;;;0.10;0.10;;;;;;;-145.06;100.00;54662.03;10457829;28;20378;-68
2023/12/30 21:46:27;;;;;;;0.00;0.00;;;;;;;-145.06;100.00;54670.13;10470854;28;20016;-68
2023/12/30 21:51:28;;;;;;;0.10;0.10;;;;;;;-145.06;100.00;54649.88;10464575;28;20017;-68
2023/12/30 21:56:29;;;;;;;0.00;0.00;;;;;;;-145.06;100.00;54645.81;10460251;28;20028;-67
2023/12/30 22:01:29;;;;;;;0.00;0.00;;;;;;;-145.06;100.00;54633.66;10458777;28;20644;-66
2023/12/30 22:06:31;;;;;;;0.10;0.10;;;;;;;-145.06;100.00;54633.66;10460685;28;20028;-67
2023/12/30 22:11:32;;;;;;;0.10;0.10;;;;;;;-145.06;100.00;54617.47;10466157;28;20028;-68
2023/12/30 22:16:36;;;;;;;0.00;0.00;;;;;;;-145.06;100.00;54623.53;10462815;28;20073;-68
2023/12/30 22:21:37;;;;;;;0.10;0.10;;;;;;;-145.06;100.00;54589.09;10462768;28;20028;-68
2023/12/30 22:26:37;;;;;;;0.03;0.03;;;;;;;-145.06;100.00;54615.44;10468349;28;20025;-68
2023/12/30 22:31:41;;;;;;;0.00;0.00;;;;;;;-145.06;100.00;54603.28;10465713;28;20075;-68